createdAt,value
2022-12-15T00:02:27.998Z,99141.58
2022-12-15T00:05:14.609Z,99140.86
2022-12-15T00:08:01.329Z,99141.95
2022-12-15T00:10:47.830Z,99140.36
2022-12-15T00:13:34.954Z,99138.35
2022-12-15T00:16:21.543Z,99137.37
2022-12-15T00:19:07.782Z,99137.56
2022-12-15T00:21:54.214Z,99134.95
2022-12-15T00:24:40.654Z,99132.08
2022-12-15T00:27:26.885Z,99134.59
2022-12-15T00:30:13.243Z,99135.90
2022-12-15T00:32:59.496Z,99132.13
2022-12-15T00:35:45.989Z,99126.77
2022-12-15T00:38:33.394Z,99127.87
2022-12-15T00:41:01.889Z,99133.86
2022-12-15T00:43:31.494Z,99130.98
2022-12-15T00:46:15.468Z,99127.80
2022-12-15T00:48:43.812Z,99130.80
2022-12-15T00:51:12.759Z,99128.14
2022-12-15T00:54:00.022Z,99128.66
2022-12-15T00:56:46.684Z,99124.42
2022-12-15T00:59:33.866Z,99126.06
2022-12-15T01:02:21.835Z,99121.08
2022-12-15T01:05:08.388Z,99112.54
2022-12-15T01:07:54.491Z,99114.33
2022-12-15T01:10:41.158Z,99115.48
2022-12-15T01:13:32.342Z,99117.31
2022-12-15T01:16:19.050Z,99120.27
2022-12-15T01:19:05.434Z,99115.34
2022-12-15T01:21:33.559Z,99120.18
2022-12-15T01:24:01.621Z,99118.65
2022-12-15T01:26:30.177Z,99113.56
2022-12-15T01:28:58.267Z,99115.64
2022-12-15T01:31:26.396Z,99113.67
2022-12-15T01:33:54.799Z,99111.96
2022-12-15T01:36:22.879Z,99112.95
2022-12-15T01:38:54.351Z,99112.80
2022-12-15T01:41:23.292Z,99110.30
2022-12-15T01:43:51.456Z,99111.00
2022-12-15T01:46:21.811Z,99112.61
2022-12-15T01:48:57.293Z,99115.55
2022-12-15T01:54:38.039Z,99118.89
2022-12-15T01:57:13.931Z,99116.22
2022-12-15T01:59:48.348Z,99107.15
2022-12-15T02:02:17.927Z,99107.26
2022-12-15T02:04:48.569Z,99103.32
2022-12-15T02:07:17.611Z,99106.91
2022-12-15T02:09:48.833Z,99106.27
2022-12-15T02:12:28.167Z,99101.75
2022-12-15T02:15:09.248Z,99099.70
2022-12-15T02:17:45.512Z,99101.83
2022-12-15T02:20:51.548Z,99107.48
2022-12-15T02:23:47.917Z,99113.23
2022-12-15T02:26:51.687Z,99111.19
2022-12-15T02:29:47.466Z,99111.65
2022-12-15T02:32:21.350Z,99107.94
2022-12-15T02:34:55.672Z,99110.15
2022-12-15T02:37:28.911Z,99113.40
2022-12-15T02:39:57.474Z,99110.64
2022-12-15T02:42:29.209Z,99110.69
2022-12-15T02:45:00.819Z,99112.07
2022-12-15T02:47:35.431Z,99114.84
2022-12-15T02:50:24.873Z,99122.13
2022-12-15T02:53:02.767Z,99124.10
2022-12-15T02:55:41.581Z,99122.50
2022-12-15T02:58:19.803Z,99121.91
2022-12-15T03:00:54.410Z,99125.97
2022-12-15T03:03:24.925Z,99128.38
2022-12-15T03:05:54.688Z,99129.73
2022-12-15T03:08:23.473Z,99128.05
2022-12-15T03:10:54.564Z,99122.58
2022-12-15T03:13:24.835Z,99121.46
2022-12-15T03:15:53.939Z,99119.63
2022-12-15T03:18:22.410Z,99120.63
2022-12-15T03:20:51.815Z,99122.48
2022-12-15T03:23:22.649Z,99128.52
2022-12-15T03:25:51.069Z,99128.02
2022-12-15T03:28:19.410Z,99127.36
2022-12-15T03:30:50.225Z,99128.39
2022-12-15T03:33:19.283Z,99133.81
2022-12-15T03:35:47.732Z,99138.21
2022-12-15T03:38:16.109Z,99138.95
2022-12-15T03:40:44.639Z,99139.36
2022-12-15T03:43:12.930Z,99143.23
2022-12-15T03:45:41.421Z,99147.16
2022-12-15T03:48:09.939Z,99151.52
2022-12-15T03:50:38.688Z,99153.87
2022-12-15T03:53:07.110Z,99150.16
2022-12-15T03:55:35.826Z,99151.83
2022-12-15T03:58:04.183Z,99152.64
2022-12-15T04:00:33.070Z,99151.44
2022-12-15T04:03:01.694Z,99153.23
2022-12-15T04:05:32.903Z,99153.07
2022-12-15T04:08:02.076Z,99153.76
2022-12-15T04:10:34.662Z,99158.95
2022-12-15T04:13:05.844Z,99159.09
2022-12-15T04:15:34.715Z,99156.27
2022-12-15T04:18:05.045Z,99152.63
2022-12-15T04:20:33.837Z,99159.20
2022-12-15T04:23:02.215Z,99163.91
2022-12-15T04:25:48.621Z,99168.10
2022-12-15T04:28:35.233Z,99172.14
2022-12-15T04:31:26.272Z,99174.70
2022-12-15T04:34:16.431Z,99167.05
2022-12-15T04:37:04.947Z,99168.51
2022-12-15T04:39:53.735Z,99172.44
2022-12-15T04:42:40.782Z,99179.56
2022-12-15T04:45:30.743Z,99180.98
2022-12-15T04:48:18.377Z,99183.70
2022-12-15T04:51:05.187Z,99184.20
2022-12-15T04:53:52.202Z,99183.52
2022-12-15T04:56:38.816Z,99182.84
2022-12-15T04:59:25.488Z,99193.40
2022-12-15T05:02:12.329Z,99199.73
2022-12-15T05:04:59.403Z,99210.09
2022-12-15T05:07:45.958Z,99214.88
2022-12-15T05:10:32.469Z,99216.64
2022-12-15T05:13:24.107Z,99218.89
2022-12-15T05:16:10.932Z,99221.88
2022-12-15T05:18:57.720Z,99225.55
2022-12-15T05:21:44.334Z,99232.40
2022-12-15T05:24:31.137Z,99232.55
2022-12-15T05:27:17.744Z,99234.91
2022-12-15T05:30:04.406Z,99234.98
2022-12-15T05:32:33.397Z,99241.11
2022-12-15T05:35:01.940Z,99247.52
2022-12-15T05:37:30.431Z,99254.57
2022-12-15T05:39:58.901Z,99262.17
2022-12-15T05:42:27.148Z,99266.04
2022-12-15T05:44:55.569Z,99267.86
2022-12-15T05:47:24.036Z,99275.69
2022-12-15T05:49:52.420Z,99285.23
2022-12-15T05:52:20.765Z,99287.56
2022-12-15T05:54:49.191Z,99285.48
2022-12-15T05:57:17.624Z,99288.09
2022-12-15T05:59:46.043Z,99288.58
2022-12-15T06:02:14.492Z,99293.64
2022-12-15T06:04:43.068Z,99301.89
2022-12-15T06:07:11.594Z,99306.09
2022-12-15T06:09:39.977Z,99307.90
2022-12-15T06:12:08.475Z,99313.39
2022-12-15T06:14:37.313Z,99322.60
2022-12-15T06:17:05.729Z,99329.98
2022-12-15T06:19:34.331Z,99337.03
2022-12-15T06:22:02.797Z,99345.13
2022-12-15T06:24:31.173Z,99350.83
2022-12-15T06:26:59.721Z,99352.36
2022-12-15T06:29:28.274Z,99355.58
2022-12-15T06:31:56.754Z,99359.32
2022-12-15T06:34:26.028Z,99361.15
2022-12-15T06:36:54.357Z,99368.02
2022-12-15T06:39:22.994Z,99371.93
2022-12-15T06:41:51.369Z,99378.98
2022-12-15T06:44:20.054Z,99388.09
2022-12-15T06:46:48.465Z,99389.78
2022-12-15T06:49:17.024Z,99393.70
2022-12-15T06:51:45.351Z,99396.39
2022-12-15T06:54:13.892Z,99400.05
2022-12-15T06:56:42.278Z,99400.03
2022-12-15T06:59:12.288Z,99400.02
2022-12-15T07:01:41.518Z,99402.33
2022-12-15T07:04:10.695Z,99404.33
2022-12-15T07:06:40.030Z,99410.86
2022-12-15T07:09:12.712Z,99416.41
2022-12-15T07:11:41.067Z,99421.31
2022-12-15T07:14:10.378Z,99423.84
2022-12-15T07:16:39.121Z,99427.02
2022-12-15T07:19:10.999Z,99428.34
2022-12-15T07:21:40.473Z,99432.55
2022-12-15T07:24:11.669Z,99439.09
2022-12-15T07:26:40.074Z,99443.64
2022-12-15T07:29:09.652Z,99450.91
2022-12-15T07:31:38.197Z,99452.30
2022-12-15T07:34:06.810Z,99460.17
2022-12-15T07:36:35.298Z,99469.23
2022-12-15T07:39:05.162Z,99473.97
2022-12-15T07:41:33.760Z,99476.16
2022-12-15T07:44:02.299Z,99484.37
2022-12-15T07:46:30.761Z,99488.73
2022-12-15T07:48:59.247Z,99491.08
2022-12-15T07:51:31.479Z,99493.60
2022-12-15T07:54:00.333Z,99494.80
2022-12-15T07:56:28.681Z,99494.44
2022-12-15T07:58:57.177Z,99494.65
2022-12-15T08:01:25.860Z,99497.16
2022-12-15T08:03:54.380Z,99498.51
2022-12-15T08:06:24.259Z,99498.16
2022-12-15T08:08:53.561Z,99501.48
2022-12-15T08:11:23.982Z,99511.91
2022-12-15T08:14:13.260Z,99514.48
2022-12-15T08:16:41.503Z,99518.73
2022-12-15T08:19:13.297Z,99526.52
2022-12-15T08:21:43.598Z,99530.14
2022-12-15T08:24:13.470Z,99537.10
2022-12-15T08:26:42.943Z,99544.03
2022-12-15T08:32:02.121Z,99550.02
2022-12-15T08:34:31.025Z,99549.80
2022-12-15T08:36:59.403Z,99553.05
2022-12-15T08:39:27.881Z,99557.86
2022-12-15T08:41:56.593Z,99563.45
2022-12-15T08:44:25.259Z,99569.16
2022-12-15T08:46:53.626Z,99571.88
2022-12-15T08:49:22.630Z,99576.02
2022-12-15T08:51:51.444Z,99579.55
2022-12-15T08:54:20.769Z,99580.35
2022-12-15T08:56:49.813Z,99576.16
2022-12-15T08:59:18.893Z,99578.89
2022-12-15T09:01:47.318Z,99582.09
2022-12-15T09:04:16.163Z,99584.27
2022-12-15T09:06:46.762Z,99588.48
2022-12-15T09:09:21.361Z,99597.60
2022-12-15T09:11:50.136Z,99598.94
2022-12-15T09:14:22.778Z,99601.79
2022-12-15T09:16:55.772Z,99604.23
2022-12-15T09:19:24.801Z,99604.73
2022-12-15T09:21:53.284Z,99604.42
2022-12-15T09:24:32.214Z,99607.33
2022-12-15T09:27:03.571Z,99604.94
2022-12-15T09:29:32.246Z,99606.55
2022-12-15T09:32:01.066Z,99612.44
2022-12-15T09:34:29.833Z,99614.80
2022-12-15T09:36:58.424Z,99621.77
2022-12-15T09:39:27.413Z,99624.33
2022-12-15T09:41:58.660Z,99625.56
2022-12-15T09:44:29.807Z,99629.42
2022-12-15T09:47:15.368Z,99639.64
2022-12-15T09:49:54.632Z,99638.73
2022-12-15T09:52:27.306Z,99638.64
2022-12-15T09:54:56.111Z,99633.67
2022-12-15T09:57:35.939Z,99637.61
2022-12-15T10:00:21.281Z,99642.20
2022-12-15T10:03:11.861Z,99640.34
2022-12-15T10:08:45.729Z,99642.31
2022-12-15T10:11:24.387Z,99646.44
2022-12-15T10:13:57.746Z,99656.41
2022-12-15T10:16:32.924Z,99653.37
2022-12-15T10:19:06.506Z,99652.44
2022-12-15T10:21:36.236Z,99658.16
2022-12-15T10:24:26.629Z,99661.02
2022-12-15T10:27:17.644Z,99665.77
2022-12-15T10:29:51.119Z,99668.50
2022-12-15T10:32:26.106Z,99669.52
2022-12-15T10:34:54.647Z,99672.73
2022-12-15T10:37:23.741Z,99672.67
2022-12-15T10:39:52.233Z,99673.88
2022-12-15T10:42:22.868Z,99681.56
2022-12-15T10:44:53.496Z,99684.88
2022-12-15T10:47:26.255Z,99685.50
2022-12-15T10:50:19.458Z,99691.82
2022-12-15T10:52:51.458Z,99697.28
2022-12-15T10:55:36.057Z,99697.56
2022-12-15T10:58:15.977Z,99705.79
2022-12-15T11:00:45.934Z,99706.34
2022-12-15T11:03:25.746Z,99708.52
2022-12-15T11:05:56.603Z,99706.31
2022-12-15T11:08:26.844Z,99712.46
2022-12-15T11:11:15.527Z,99711.40
2022-12-15T11:14:05.114Z,99715.13
2022-12-15T11:16:33.558Z,99720.29
2022-12-15T11:19:09.903Z,99722.19
2022-12-15T11:21:43.957Z,99722.88
2022-12-15T11:24:18.276Z,99728.63
2022-12-15T11:26:54.833Z,99731.50
2022-12-15T11:29:33.963Z,99736.63
2022-12-15T11:32:06.959Z,99736.23
2022-12-15T11:34:38.921Z,99743.00
2022-12-15T11:37:19.908Z,99750.86
2022-12-15T11:40:04.056Z,99752.52
2022-12-15T11:42:44.711Z,99755.35
2022-12-15T11:45:22.628Z,99756.48
2022-12-15T11:47:57.345Z,99764.81
2022-12-15T11:50:32.495Z,99768.60
2022-12-15T11:53:05.889Z,99768.86
2022-12-15T11:55:45.321Z,99774.49
2022-12-15T11:58:36.318Z,99778.14
2022-12-15T12:01:12.808Z,99771.92
2022-12-15T12:03:55.771Z,99774.15
2022-12-15T12:06:34.780Z,99783.69
2022-12-15T12:09:24.145Z,99788.33
2022-12-15T12:11:57.371Z,99791.07
2022-12-15T12:14:39.528Z,99795.15
2022-12-15T12:17:13.574Z,99790.38
2022-12-15T12:19:50.829Z,99798.97
2022-12-15T12:22:25.145Z,99805.05
2022-12-15T12:24:59.773Z,99807.95
2022-12-15T12:27:37.164Z,99809.02
2022-12-15T12:30:12.201Z,99812.98
2022-12-15T12:35:44.500Z,99815.86
2022-12-15T12:38:14.008Z,99823.13
2022-12-15T12:40:59.455Z,99830.65
2022-12-15T12:43:36.757Z,99836.52
2022-12-15T12:46:14.166Z,99836.05
2022-12-15T12:48:48.892Z,99834.54
2022-12-15T12:51:27.826Z,99837.09
2022-12-15T12:53:57.017Z,99838.75
2022-12-15T12:56:38.612Z,99841.17
2022-12-15T12:59:36.288Z,99842.59
2022-12-15T13:02:38.605Z,99848.55
2022-12-15T13:05:33.455Z,99853.16
2022-12-15T13:08:33.907Z,99860.25
2022-12-15T13:11:40.686Z,99862.61
2022-12-15T13:14:22.531Z,99857.65
2022-12-15T13:20:25.276Z,99869.34
2022-12-15T13:22:54.742Z,99871.13
2022-12-15T13:25:41.498Z,99868.98
2022-12-15T13:28:29.991Z,99869.38
2022-12-15T13:31:24.543Z,99874.09
2022-12-15T13:34:00.908Z,99876.96
2022-12-15T13:36:54.430Z,99884.02
2022-12-15T13:39:57.640Z,99888.65
2022-12-15T13:42:51.210Z,99890.52
2022-12-15T13:45:37.682Z,99897.39
2022-12-15T13:48:18.003Z,99904.93
2022-12-15T13:50:53.368Z,99902.23
2022-12-15T13:53:25.381Z,99905.55
2022-12-15T13:56:19.093Z,99909.52
2022-12-15T13:58:56.850Z,99911.71
2022-12-15T14:01:32.579Z,99916.14
2022-12-15T14:04:07.323Z,99926.88
2022-12-15T14:06:40.571Z,99930.85
2022-12-15T14:09:14.740Z,99934.25
2022-12-15T14:11:54.005Z,99927.36
2022-12-15T14:14:25.319Z,99928.80
2022-12-15T14:16:59.837Z,99931.80
2022-12-15T14:19:38.857Z,99931.09
2022-12-15T14:22:27.486Z,99928.10
2022-12-15T14:25:02.224Z,99927.88
2022-12-15T14:27:32.673Z,99925.15
2022-12-15T14:30:21.823Z,99925.13
2022-12-15T14:32:56.527Z,99926.06
2022-12-15T14:35:31.094Z,99928.98
2022-12-15T14:38:03.571Z,99928.40
2022-12-15T14:40:35.498Z,99930.19
2022-12-15T14:43:04.822Z,99925.48
2022-12-15T14:45:33.751Z,99925.64
2022-12-15T14:51:01.093Z,99930.48
2022-12-15T14:53:33.745Z,99933.92
2022-12-15T14:56:27.654Z,99940.20
2022-12-15T14:59:20.901Z,99941.23
2022-12-15T15:01:59.467Z,99947.70
2022-12-15T15:03:04.934Z,99813.34
2022-12-15T15:03:09.844Z,99866.45
2022-12-15T15:04:31.963Z,99953.37
2022-12-15T15:07:02.649Z,99958.65
2022-12-15T15:09:33.826Z,99957.70
2022-12-15T15:12:05.038Z,99960.86
2022-12-15T15:14:38.637Z,99963.39
2022-12-15T15:17:16.446Z,99967.70
2022-12-15T15:19:50.601Z,99974.21
2022-12-15T15:22:34.700Z,99977.41
2022-12-15T15:25:19.303Z,99980.58
2022-12-15T15:27:49.570Z,99987.97
2022-12-15T15:30:21.425Z,99992.83
2022-12-15T15:32:55.540Z,99991.36
2022-12-15T15:35:29.759Z,99988.23
2022-12-15T15:38:02.547Z,99989.77
2022-12-15T15:40:31.016Z,99995.23
2022-12-15T15:43:00.324Z,99997.60
2022-12-15T15:45:28.917Z,99995.67
2022-12-15T15:47:57.398Z,100000.10
2022-12-15T15:50:29.571Z,100003.39
2022-12-15T15:52:58.467Z,100008.36
2022-12-15T15:55:33.706Z,100012.45
2022-12-15T15:58:12.215Z,100026.27
2022-12-15T16:00:41.107Z,100030.17
2022-12-15T16:03:10.427Z,100031.11
2022-12-15T16:05:39.610Z,100032.12
2022-12-15T16:08:13.111Z,100030.17
2022-12-15T16:10:43.029Z,100033.63
2022-12-15T16:13:12.434Z,100038.48
2022-12-15T16:15:41.335Z,100049.59
2022-12-15T16:18:09.842Z,100055.92
2022-12-15T16:20:39.517Z,100063.14
2022-12-15T16:23:14.596Z,100059.81
2022-12-15T16:25:50.554Z,100065.52
2022-12-15T16:28:20.875Z,100069.30
2022-12-15T16:30:50.235Z,100074.91
2022-12-15T16:33:19.032Z,100082.04
2022-12-15T16:35:49.561Z,100088.53
2022-12-15T16:38:22.962Z,100086.75
2022-12-15T16:40:51.890Z,100084.67
2022-12-15T16:43:23.630Z,100086.26
2022-12-15T16:45:53.353Z,100096.64
2022-12-15T16:48:22.011Z,100100.90
2022-12-15T16:50:52.600Z,100101.67
2022-12-15T16:53:25.655Z,100104.96
2022-12-15T16:55:56.470Z,100105.79
2022-12-15T16:58:25.804Z,100107.04
2022-12-15T17:00:54.248Z,100108.48
2022-12-15T17:03:25.081Z,100109.25
2022-12-15T17:05:55.623Z,100104.13
2022-12-15T17:08:25.953Z,100103.09
2022-12-15T17:10:54.824Z,100109.91
2022-12-15T17:13:34.330Z,100111.06
2022-12-15T17:16:10.619Z,100113.35
2022-12-15T17:18:39.492Z,100116.20
2022-12-15T17:21:14.782Z,100123.20
2022-12-15T17:23:43.942Z,100124.80
2022-12-15T17:26:27.579Z,100129.60
2022-12-15T17:28:58.464Z,100120.72
2022-12-15T17:31:33.280Z,100111.58
2022-12-15T17:34:21.843Z,100115.20
2022-12-15T17:36:50.182Z,100114.05
2022-12-15T17:39:20.035Z,100112.42
2022-12-15T17:41:59.848Z,100110.97
2022-12-15T17:44:33.493Z,100111.83
2022-12-15T17:47:05.599Z,100115.16
2022-12-15T17:49:36.918Z,100109.14
2022-12-15T17:52:26.259Z,100110.86
2022-12-15T17:54:55.687Z,100111.81
2022-12-15T17:57:24.890Z,100109.59
2022-12-15T18:00:21.570Z,100115.46
2022-12-15T18:02:50.085Z,100121.33
2022-12-15T18:05:19.522Z,100123.42
2022-12-15T18:07:52.773Z,100115.81
2022-12-15T18:10:29.386Z,100114.71
2022-12-15T18:12:58.791Z,100114.79
2022-12-15T18:15:30.657Z,100115.34
2022-12-15T18:18:00.678Z,100118.71
2022-12-15T18:20:29.307Z,100122.42
2022-12-15T18:22:57.940Z,100127.77
2022-12-15T18:25:28.063Z,100122.23
2022-12-15T18:27:59.364Z,100119.61
2022-12-15T18:30:28.929Z,100125.16
2022-12-15T18:32:59.388Z,100131.05
2022-12-15T18:35:34.312Z,100127.84
2022-12-15T18:38:02.661Z,100129.17
2022-12-15T18:40:31.097Z,100131.46
2022-12-15T18:42:59.646Z,100130.93
2022-12-15T18:45:29.540Z,100133.45
2022-12-15T18:47:57.818Z,100140.11
2022-12-15T18:50:26.685Z,100139.07
2022-12-15T18:52:59.391Z,100138.91
2022-12-15T18:55:30.954Z,100140.44
2022-12-15T18:58:01.145Z,100143.98
2022-12-15T19:00:31.748Z,100140.77
2022-12-15T19:03:00.308Z,100140.40
2022-12-15T19:05:31.786Z,100139.91
2022-12-15T19:08:04.261Z,100144.48
2022-12-15T19:10:34.271Z,100147.19
2022-12-15T19:13:02.689Z,100159.29
2022-12-15T19:15:31.180Z,100170.87
2022-12-15T19:18:17.702Z,100176.02
2022-12-15T19:21:04.382Z,100175.04
2022-12-15T19:23:33.071Z,100178.58
2022-12-15T19:26:01.932Z,100175.95
2022-12-15T19:28:30.338Z,100177.85
2022-12-15T19:30:58.934Z,100179.00
2022-12-15T19:33:27.328Z,100178.21
2022-12-15T19:35:57.052Z,100180.10
2022-12-15T19:38:28.531Z,100177.87
2022-12-15T19:40:57.674Z,100172.66
2022-12-15T19:43:26.953Z,100173.72
2022-12-15T19:45:55.446Z,100174.80
2022-12-15T19:48:24.533Z,100174.91
2022-12-15T19:50:54.865Z,100169.95
2022-12-15T19:53:25.769Z,100163.87
2022-12-15T19:55:57.100Z,100164.70
2022-12-15T19:58:28.902Z,100166.40
2022-12-15T20:00:59.424Z,100168.23
2022-12-15T20:03:31.565Z,100167.30
2022-12-15T20:06:02.818Z,100168.75
2022-12-15T20:08:35.593Z,100169.41
2022-12-15T20:11:04.682Z,100170.73
2022-12-15T20:13:33.377Z,100176.20
2022-12-15T20:16:02.416Z,100175.42
2022-12-15T20:18:31.229Z,100172.40
2022-12-15T20:21:00.869Z,100168.23
2022-12-15T20:23:31.333Z,100171.59
2022-12-15T20:26:00.463Z,100172.25
2022-12-15T20:28:30.111Z,100176.89
2022-12-15T20:30:58.796Z,100174.58
2022-12-15T20:33:27.899Z,100176.45
2022-12-15T20:35:56.342Z,100176.10
2022-12-15T20:38:31.321Z,100177.46
2022-12-15T20:41:01.123Z,100170.74
2022-12-15T20:43:33.279Z,100167.73
2022-12-15T20:46:05.711Z,100167.42
2022-12-15T20:48:36.000Z,100167.30
2022-12-15T20:51:09.199Z,100166.34
2022-12-15T20:53:38.705Z,100166.99
2022-12-15T20:56:08.043Z,100166.08
2022-12-15T20:58:39.385Z,100170.02
2022-12-15T21:01:18.675Z,100174.01
2022-12-15T21:03:49.445Z,100169.21
2022-12-15T21:06:20.705Z,100168.95
2022-12-15T21:08:49.290Z,100175.54
2022-12-15T21:11:20.822Z,100176.43
2022-12-15T21:13:50.652Z,100177.79
2022-12-15T21:16:21.021Z,100178.67
2022-12-15T21:21:40.532Z,100178.13
2022-12-15T21:24:16.178Z,100181.82
2022-12-15T21:26:45.492Z,100185.23
2022-12-15T21:29:23.934Z,100186.46
2022-12-15T21:31:53.111Z,100184.26
2022-12-15T21:34:21.710Z,100183.32
2022-12-15T21:36:54.734Z,100178.84
2022-12-15T21:39:28.897Z,100179.11
2022-12-15T21:41:59.530Z,100186.06
2022-12-15T21:44:29.562Z,100188.28
2022-12-15T21:46:58.686Z,100180.27
2022-12-15T21:49:27.439Z,100183.83
2022-12-15T21:52:00.733Z,100182.39
2022-12-15T21:54:34.966Z,100188.64
2022-12-15T21:57:03.553Z,100187.55
2022-12-15T21:59:33.110Z,100184.60
2022-12-15T22:02:14.090Z,100177.04
2022-12-15T22:04:42.888Z,100177.55
2022-12-15T22:07:15.804Z,100172.63
2022-12-15T22:09:45.812Z,100165.35
2022-12-15T22:12:20.460Z,100163.98
2022-12-15T22:14:49.440Z,100159.48
2022-12-15T22:17:20.289Z,100158.50
2022-12-15T22:19:48.843Z,100159.15
2022-12-15T22:22:17.630Z,100163.35
2022-12-15T22:24:46.025Z,100172.36
2022-12-15T22:27:19.623Z,100176.27
2022-12-15T22:29:48.831Z,100178.34
2022-12-15T22:32:17.830Z,100183.27
2022-12-15T22:34:46.513Z,100191.96
2022-12-15T22:37:15.293Z,100196.84
2022-12-15T22:39:43.781Z,100197.91
2022-12-15T22:42:16.818Z,100200.58
2022-12-15T22:44:45.974Z,100206.85
2022-12-15T22:47:14.343Z,100206.58
2022-12-15T22:49:43.355Z,100210.48
2022-12-15T22:52:17.200Z,100215.70
2022-12-15T22:54:46.246Z,100210.94
2022-12-15T22:57:23.341Z,100213.50
2022-12-15T22:59:59.913Z,100213.44
2022-12-15T23:02:31.262Z,100211.50
2022-12-15T23:05:01.482Z,100208.65
2022-12-15T23:07:29.969Z,100208.20
2022-12-15T23:10:12.812Z,100202.67
2022-12-15T23:12:41.537Z,100203.83
2022-12-15T23:15:29.802Z,100197.98
2022-12-15T23:17:58.177Z,100195.80
2022-12-15T23:20:26.889Z,100191.83
2022-12-15T23:22:55.371Z,100191.81
2022-12-15T23:25:24.159Z,100197.72
2022-12-15T23:27:52.643Z,100201.22
2022-12-15T23:30:21.286Z,100204.84
2022-12-15T23:32:49.654Z,100203.79
2022-12-15T23:35:18.229Z,100212.34
2022-12-15T23:37:46.571Z,100208.27
2022-12-15T23:40:20.684Z,100206.10
2022-12-15T23:42:50.202Z,100202.86
2022-12-15T23:45:19.468Z,100204.34
2022-12-15T23:47:47.933Z,100213.65
2022-12-15T23:50:17.797Z,100211.34
2022-12-15T23:52:50.282Z,100209.34
2022-12-15T23:55:20.407Z,100208.98
2022-12-15T23:57:48.972Z,100214.19
